Time;durP1;ratioP1;P1;durP2;ratioP2;P2;SDS_P1;SDS_P2;PMS_P1;PMS_P2;Temp;Humidity;BMP_temperature;BMP_pressure;BME280_temperature;BME280_humidity;BME280_pressure;Samples;Min_cycle;Max_cycle;Signal;HPM_P1;HPM_P2
2023/12/29 00:01:31;;;;;;;;;;;;;;;12.16;58.87;101227.56;4249694;27;20074;-53
2023/12/29 00:03:35;;;;;;;7.85;1.67;;;;;;;12.19;58.80;101237.16;4230620;28;19920;-55
2023/12/29 00:05:37;;;;;;;8.60;2.00;;;;;;;12.16;58.59;101230.22;4249582;27;20043;-54
2023/12/29 00:07:38;;;;;;;6.05;1.65;;;;;;;12.21;57.81;101225.66;4249285;27;20065;-53
2023/12/29 00:09:40;;;;;;;7.05;1.88;;;;;;;12.23;58.67;101230.88;4249412;27;20447;-53
2023/12/29 00:11:43;;;;;;;7.70;2.00;;;;;;;12.25;58.57;101231.69;4249231;27;20047;-55
2023/12/29 00:13:45;;;;;;;6.75;1.70;;;;;;;12.25;58.57;101236.97;4249299;27;20505;-53
2023/12/29 00:15:50;;;;;;;8.48;2.10;;;;;;;12.27;58.56;101236.00;4249356;27;20511;-53
2023/12/29 00:17:52;;;;;;;7.63;1.75;;;;;;;12.21;59.06;101238.84;4249220;27;20121;-55
2023/12/29 00:19:54;;;;;;;6.75;1.45;;;;;;;12.20;59.21;101242.41;4248964;27;20039;-54
2023/12/29 00:21:56;;;;;;;8.30;2.00;;;;;;;12.22;59.29;101247.59;4249236;27;20074;-53
2023/12/29 00:23:58;;;;;;;7.00;1.75;;;;;;;12.22;59.56;101253.72;4249183;27;20450;-54
2023/12/29 00:25:59;;;;;;;8.48;1.80;;;;;;;12.24;58.87;101245.78;4248820;27;20490;-52
2023/12/29 00:28:01;;;;;;;7.60;1.70;;;;;;;12.24;58.82;101259.81;4248464;27;20044;-54
2023/12/29 00:30:03;;;;;;;6.85;1.45;;;;;;;12.24;59.14;101253.69;4249080;27;20053;-54
2023/12/29 00:32:05;;;;;;;9.00;1.83;;;;;;;12.24;58.88;101249.28;4248952;27;20047;-54
2023/12/29 00:34:07;;;;;;;7.78;1.70;;;;;;;12.24;59.32;101251.06;4248520;27;20131;-53
2023/12/29 00:36:16;;;;;;;8.18;1.88;;;;;;;12.26;59.34;101252.72;4249078;27;20457;-54
2023/12/29 00:38:17;;;;;;;8.32;1.65;;;;;;;12.29;58.61;101257.88;4248930;27;20043;-53
2023/12/29 00:40:19;;;;;;;6.72;1.63;;;;;;;12.29;58.80;101249.97;4248804;27;20039;-52
2023/12/29 00:42:21;;;;;;;7.90;2.00;;;;;;;12.29;59.07;101247.34;4248368;27;20058;-53
2023/12/29 00:44:23;;;;;;;7.80;1.88;;;;;;;12.28;58.73;101239.47;4247730;27;20555;-51
2023/12/29 00:46:25;;;;;;;7.18;1.75;;;;;;;12.30;58.10;101230.59;4248972;27;20047;-55
2023/12/29 00:48:26;;;;;;;7.97;1.88;;;;;;;12.30;58.72;101235.03;4248430;27;20055;-54
2023/12/29 00:50:28;;;;;;;8.35;1.75;;;;;;;12.29;58.20;101228.03;4248258;27;20047;-52
2023/12/29 00:52:30;;;;;;;6.78;1.90;;;;;;;12.14;58.13;101192.50;4248686;27;20103;-51
2023/12/29 00:54:32;;;;;;;7.88;1.52;;;;;;;12.32;58.30;101230.56;4248780;27;20463;-52
2023/12/29 00:56:34;;;;;;;5.85;1.63;;;;;;;12.33;58.75;101215.59;4248270;27;20053;-52
2023/12/29 00:58:35;;;;;;;9.52;1.90;;;;;;;12.29;58.83;101222.75;4248803;27;20496;-51
2023/12/29 01:00:37;;;;;;;6.80;1.70;;;;;;;12.29;58.42;101228.88;4248633;27;20040;-52
2023/12/29 01:02:39;;;;;;;6.63;1.40;;;;;;;12.33;58.96;101236.69;4248618;27;20126;-53
2023/12/29 01:04:41;;;;;;;9.82;2.00;;;;;;;12.30;58.52;101235.88;4248382;27;20092;-49
2023/12/29 01:06:43;;;;;;;8.98;1.85;;;;;;;12.32;58.80;101232.31;4248359;27;20071;-50
2023/12/29 01:08:44;;;;;;;6.53;1.55;;;;;;;12.32;58.77;101230.56;4248604;27;20070;-49
2023/12/29 01:10:46;;;;;;;7.68;1.50;;;;;;;12.34;58.36;101230.50;4248071;27;20462;-52
2023/12/29 01:12:47;;;;;;;8.85;1.83;;;;;;;12.35;58.19;101221.69;4248451;27;20494;-50
2023/12/29 01:14:49;;;;;;;7.32;1.77;;;;;;;12.35;58.27;101211.13;4248399;27;20039;-51
2023/12/29 01:16:51;;;;;;;8.02;1.75;;;;;;;12.34;58.20;101204.97;4248222;27;20043;-52
2023/12/29 01:18:53;;;;;;;7.20;1.35;;;;;;;12.35;58.15;101213.78;4248394;27;20061;-51
2023/12/29 01:20:54;;;;;;;7.40;1.60;;;;;;;12.36;58.24;101213.72;4248138;27;20459;-50
2023/12/29 01:22:56;;;;;;;5.75;1.38;;;;;;;12.34;58.73;101206.78;4248057;27;20047;-53
2023/12/29 01:25:01;;;;;;;6.47;1.60;;;;;;;12.35;58.36;101205.84;4248001;27;20047;-52
2023/12/29 01:27:05;;;;;;;6.95;1.80;;;;;;;12.33;58.33;101200.63;4248194;27;20134;-50
2023/12/29 01:29:07;;;;;;;8.57;1.70;;;;;;;12.36;58.17;101205.78;4247971;27;20506;-52
2023/12/29 01:31:11;;;;;;;8.85;1.90;;;;;;;12.36;58.58;101202.28;4248127;27;20040;-54
2023/12/29 01:33:12;;;;;;;9.20;2.00;;;;;;;12.36;58.05;101197.88;4247770;27;20126;-52
2023/12/29 01:35:14;;;;;;;7.30;1.98;;;;;;;12.35;58.34;101204.06;4247677;27;20046;-54
2023/12/29 01:37:18;;;;;;;8.35;1.70;;;;;;;12.35;58.51;101200.59;4247735;27;20115;-52
2023/12/29 01:39:20;;;;;;;7.95;1.75;;;;;;;12.35;58.30;101201.44;4247694;27;20043;-52
2023/12/29 01:41:22;;;;;;;8.02;2.05;;;;;;;12.34;58.06;101193.59;4247645;27;20069;-53
2023/12/29 01:43:23;;;;;;;;;;;;;;;12.36;58.51;101203.16;4248205;27;20043;-52
2023/12/29 01:45:26;;;;;;;9.00;1.77;;;;;;;12.29;58.29;101215.69;4247710;27;19926;-53
2023/12/29 01:47:28;;;;;;;7.63;1.60;;;;;;;12.28;58.34;101210.47;4247974;27;20520;-53
2023/12/29 01:49:30;;;;;;;8.57;1.88;;;;;;;12.32;58.43;101216.50;4247506;27;20138;-51
2023/12/29 01:51:32;;;;;;;;;;;;;;;12.31;58.93;101213.03;4229830;28;20036;-51
2023/12/29 01:53:34;;;;;;;8.32;2.00;;;;;;;12.32;58.43;101216.50;4247383;27;19919;-53
2023/12/29 01:55:49;;;;;;;6.88;1.42;;;;;;;12.30;58.52;101214.78;4247631;27;20043;-52
2023/12/29 01:57:51;;;;;;;6.72;1.80;;;;;;;12.30;58.18;101204.22;4247540;27;20078;-48
2023/12/29 01:59:57;;;;;;;6.68;1.85;;;;;;;12.33;58.33;101219.06;4247574;27;20047;-53
2023/12/29 02:01:59;;;;;;;6.95;1.52;;;;;;;12.35;58.60;101213.78;4247382;27;20151;-52
2023/12/29 02:04:01;;;;;;;8.18;1.58;;;;;;;12.24;59.05;101219.41;4247300;27;20051;-53
2023/12/29 02:06:04;;;;;;;9.23;1.90;;;;;;;12.23;58.82;101210.63;4247325;27;20058;-52
2023/12/29 02:08:07;;;;;;;6.70;1.65;;;;;;;12.27;58.35;101209.63;4247373;27;20047;-53
2023/12/29 02:10:15;;;;;;;7.90;1.70;;;;;;;12.30;58.48;101213.94;4247121;27;20043;-55
2023/12/29 02:12:17;;;;;;;5.93;1.60;;;;;;;12.31;58.38;101199.84;4247338;27;20107;-50
2023/12/29 02:14:20;;;;;;;7.43;1.65;;;;;;;12.34;58.52;101206.78;4247456;27;20047;-52
2023/12/29 02:16:31;;;;;;;7.57;1.75;;;;;;;12.32;58.62;101203.31;4247521;27;20063;-53
2023/12/29 02:18:36;;;;;;;9.43;2.10;;;;;;;12.30;58.53;101206.00;4246442;27;20067;-54
2023/12/29 02:20:38;;;;;;;7.95;1.92;;;;;;;12.28;59.18;101211.34;4228897;28;20122;-54
2023/12/29 02:22:44;;;;;;;7.50;2.00;;;;;;;12.32;58.76;101213.88;4247232;27;20133;-54
2023/12/29 02:24:51;;;;;;;9.65;2.00;;;;;;;12.30;58.60;101213.94;4247025;27;20074;-51
2023/12/29 02:27:02;;;;;;;10.93;2.22;;;;;;;12.34;58.87;101194.44;4247250;27;20523;-52
2023/12/29 02:29:08;;;;;;;6.68;1.60;;;;;;;12.32;58.88;101204.19;4247344;27;20062;-52
2023/12/29 02:31:16;;;;;;;7.70;1.70;;;;;;;12.32;58.65;101203.31;4228987;28;20046;-54
2023/12/29 02:33:21;;;;;;;7.68;1.67;;;;;;;12.32;58.37;101203.31;4246810;27;20047;-56
2023/12/29 02:35:31;;;;;;;9.00;1.95;;;;;;;12.32;58.37;101208.59;4247152;27;20043;-52
2023/12/29 02:37:36;;;;;;;9.85;1.88;;;;;;;12.32;58.66;101204.19;4246938;27;20047;-53
2023/12/29 02:39:38;;;;;;;6.80;1.80;;;;;;;12.33;58.51;101202.41;4247330;27;20047;-52
2023/12/29 02:41:40;;;;;;;9.73;2.13;;;;;;;12.25;59.15;101197.41;4246923;27;20059;-53
2023/12/29 02:43:42;;;;;;;7.63;2.05;;;;;;;12.27;59.43;101188.53;4247239;28;20411;-53
2023/12/29 02:45:43;;;;;;;7.07;1.75;;;;;;;12.29;58.72;101191.09;4246993;27;20070;-54
2023/12/29 02:47:46;;;;;;;8.20;2.00;;;;;;;12.33;58.26;101197.13;4246799;28;20043;-55
2023/12/29 02:49:49;;;;;;;8.88;1.77;;;;;;;12.22;59.01;101192.22;4246833;28;20078;-53
2023/12/29 02:51:51;;;;;;;7.85;1.55;;;;;;;12.28;58.75;101186.75;4246684;28;20039;-53
2023/12/29 02:53:53;;;;;;;9.20;1.70;;;;;;;12.29;58.55;101176.13;4247040;28;20304;-54
2023/12/29 02:55:54;;;;;;;8.13;2.33;;;;;;;12.30;58.59;101172.56;4247148;28;20047;-53
2023/12/29 02:57:56;;;;;;;7.93;1.80;;;;;;;12.34;58.61;101168.06;4247171;28;20047;-52
2023/12/29 02:59:58;;;;;;;7.15;1.88;;;;;;;12.34;58.82;101162.78;4228993;28;20044;-53
2023/12/29 03:02:00;;;;;;;10.20;2.17;;;;;;;12.34;58.61;101160.13;4246644;28;20039;-53
2023/12/29 03:04:01;;;;;;;8.23;2.10;;;;;;;12.33;58.72;101158.41;4246692;28;20092;-53
2023/12/29 03:06:03;;;;;;;8.10;1.92;;;;;;;12.35;58.85;101161.03;4246269;28;20067;-53
2023/12/29 03:08:05;;;;;;;7.72;1.65;;;;;;;12.34;58.37;101154.88;4246879;28;20067;-55
2023/12/29 03:10:08;;;;;;;10.88;2.10;;;;;;;12.35;58.34;101145.19;4246830;28;20047;-53
2023/12/29 03:12:09;;;;;;;8.43;2.33;;;;;;;12.35;58.33;101153.94;4246745;28;20409;-53
2023/12/29 03:14:11;;;;;;;7.47;1.83;;;;;;;12.36;58.49;101166.22;4228499;28;20118;-54
2023/12/29 03:16:13;;;;;;;8.80;2.10;;;;;;;12.34;58.47;101151.38;4246563;28;20040;-54
2023/12/29 03:18:14;;;;;;;8.40;1.85;;;;;;;12.35;58.38;101158.38;4246654;28;20099;-54
2023/12/29 03:20:16;;;;;;;6.60;1.63;;;;;;;12.35;58.68;101156.59;4246765;28;20043;-54
2023/12/29 03:22:18;;;;;;;8.43;1.85;;;;;;;12.35;58.51;101158.38;4246360;28;20053;-53
2023/12/29 03:24:20;;;;;;;6.82;1.83;;;;;;;12.35;59.07;101153.94;4246714;28;20465;-53
2023/12/29 03:26:21;;;;;;;8.07;1.80;;;;;;;12.36;58.46;101155.69;4246553;28;20051;-51
2023/12/29 03:28:23;;;;;;;7.70;1.83;;;;;;;12.38;58.33;101159.13;4246352;28;20085;-55
2023/12/29 03:30:25;;;;;;;6.60;1.67;;;;;;;12.39;58.33;101155.56;4247386;27;20104;-53
2023/12/29 03:32:26;;;;;;;8.00;1.92;;;;;;;12.39;58.33;101155.56;4249623;27;20035;-53
2023/12/29 03:34:28;;;;;;;7.28;1.90;;;;;;;12.35;58.49;101148.69;4249807;27;20066;-53
2023/12/29 03:36:30;;;;;;;7.85;2.00;;;;;;;12.36;58.45;101144.25;4249725;27;20043;-53
2023/12/29 03:38:33;;;;;;;7.63;1.80;;;;;;;12.37;58.51;101145.97;4249808;27;20536;-54
2023/12/29 03:40:34;;;;;;;8.60;1.98;;;;;;;12.38;58.36;101143.31;4249238;27;20502;-53
2023/12/29 03:42:36;;;;;;;10.13;1.92;;;;;;;12.37;58.71;101156.53;4249494;27;20051;-53
2023/12/29 03:44:38;;;;;;;7.22;1.70;;;;;;;12.28;58.98;101148.06;4249710;27;20045;-53
2023/12/29 03:46:39;;;;;;;8.88;2.05;;;;;;;12.31;58.88;101144.44;4247780;27;20075;-54
2023/12/29 03:48:41;;;;;;;8.85;1.90;;;;;;;12.28;59.08;101142.78;4249516;27;20047;-52
2023/12/29 03:50:43;;;;;;;7.95;1.60;;;;;;;12.33;58.53;101147.03;4249284;27;20066;-54
2023/12/29 03:52:45;;;;;;;7.68;1.88;;;;;;;12.32;58.63;101135.63;4249777;27;20115;-56
2023/12/29 03:54:46;;;;;;;8.07;2.00;;;;;;;12.36;58.86;101142.50;4249842;27;20508;-52
2023/12/29 03:56:48;;;;;;;8.18;2.08;;;;;;;12.35;58.75;101132.00;4249587;27;20043;-55
2023/12/29 03:58:50;;;;;;;8.02;2.17;;;;;;;12.35;58.60;101139.91;4249360;27;20043;-54
2023/12/29 04:00:51;;;;;;;7.53;1.60;;;;;;;12.36;58.78;101142.50;4249399;27;20043;-53
2023/12/29 04:02:53;;;;;;;7.85;1.95;;;;;;;12.29;59.41;101139.19;4249452;27;20043;-53
2023/12/29 04:04:55;;;;;;;9.68;1.90;;;;;;;12.29;58.94;101133.06;4248935;27;20047;-53
2023/12/29 04:06:57;;;;;;;7.45;1.80;;;;;;;12.32;59.05;101134.75;4249485;27;20055;-54
2023/12/29 04:08:58;;;;;;;7.93;1.70;;;;;;;12.33;58.91;101137.31;4249365;27;20096;-53
2023/12/29 04:11:00;;;;;;;8.57;1.80;;;;;;;12.33;59.06;101136.47;4231196;28;20134;-54
2023/12/29 04:13:03;;;;;;;8.10;2.15;;;;;;;12.34;58.76;101146.09;4249551;27;20079;-53
2023/12/29 04:15:05;;;;;;;11.55;2.08;;;;;;;12.32;59.13;101135.63;4249285;27;20542;-54
2023/12/29 04:17:13;;;;;;;10.70;2.13;;;;;;;12.34;59.23;101132.91;4248939;27;20078;-53
2023/12/29 04:19:15;;;;;;;7.47;1.98;;;;;;;12.32;59.44;101129.47;4248663;27;20047;-52
2023/12/29 04:21:17;;;;;;;9.38;2.15;;;;;;;12.34;58.74;101127.66;4249351;27;20126;-53
2023/12/29 04:23:18;;;;;;;8.55;1.65;;;;;;;12.36;58.92;101128.44;4249055;27;20069;-54
2023/12/29 04:25:20;;;;;;;7.55;1.55;;;;;;;12.37;58.93;101132.78;4249202;27;20051;-54
2023/12/29 04:27:22;;;;;;;9.45;1.88;;;;;;;12.34;59.26;101125.00;4249308;27;20055;-52
2023/12/29 04:29:23;;;;;;;7.13;1.63;;;;;;;12.34;59.28;101127.66;4249086;27;20070;-53
2023/12/29 04:31:25;;;;;;;8.00;1.60;;;;;;;12.31;58.79;101120.72;4248920;27;20096;-53
2023/12/29 04:33:26;;;;;;;7.75;1.92;;;;;;;12.31;58.96;101120.72;4231570;28;20048;-51
2023/12/29 04:35:28;;;;;;;6.97;1.50;;;;;;;12.35;59.18;101121.47;4232098;28;20039;-51
2023/12/29 04:37:30;;;;;;;6.47;1.50;;;;;;;12.21;59.44;101114.03;4239847;27;20157;-53
2023/12/29 04:39:31;;;;;;;9.45;1.75;;;;;;;12.29;58.82;101118.09;4248933;27;20051;-52
2023/12/29 04:41:33;;;;;;;8.80;1.85;;;;;;;12.30;58.89;101119.81;4248086;27;20059;-53
2023/12/29 04:43:34;;;;;;;6.57;1.75;;;;;;;12.34;59.27;101127.66;4248889;27;20045;-52
2023/12/29 04:45:36;;;;;;;5.80;1.38;;;;;;;12.29;59.30;101128.66;4247634;27;20418;-52
2023/12/29 04:47:38;;;;;;;6.80;1.70;;;;;;;12.33;58.73;101125.91;4248087;27;20114;-54
2023/12/29 04:49:40;;;;;;;7.95;1.83;;;;;;;12.27;59.19;101124.34;4248675;27;20416;-52
2023/12/29 04:51:41;;;;;;;6.82;1.35;;;;;;;12.28;59.25;101112.91;4248494;27;20054;-52
2023/12/29 04:53:43;;;;;;;10.73;2.13;;;;;;;12.30;58.84;101124.25;4248699;27;20088;-54
2023/12/29 04:55:45;;;;;;;10.43;2.13;;;;;;;12.33;58.66;101118.84;4248918;27;20070;-54
2023/12/29 04:57:47;;;;;;;7.97;2.28;;;;;;;12.22;59.34;101121.88;4230427;28;20473;-54
2023/12/29 04:59:48;;;;;;;6.78;2.30;;;;;;;12.28;59.20;101120.81;4248760;27;20043;-55
2023/12/29 05:01:50;;;;;;;8.02;2.53;;;;;;;12.31;58.91;101120.72;4248434;27;20043;-56
2023/12/29 05:03:52;;;;;;;7.32;2.30;;;;;;;12.33;58.90;101123.28;4248361;27;20051;-53
2023/12/29 05:05:54;;;;;;;7.93;2.70;;;;;;;12.35;58.90;101119.66;4248522;27;20047;-54
2023/12/29 05:07:55;;;;;;;10.45;3.15;;;;;;;12.23;59.67;101118.31;4248592;27;20077;-53
2023/12/29 05:09:57;;;;;;;9.25;2.90;;;;;;;12.28;59.59;101113.78;4248505;27;20043;-53
2023/12/29 05:11:59;;;;;;;10.13;2.90;;;;;;;12.28;59.00;101116.41;4248492;27;20069;-54
2023/12/29 05:14:00;;;;;;;9.43;2.70;;;;;;;12.26;59.46;101120.00;4248485;27;20103;-54
2023/12/29 05:16:03;;;;;;;7.60;2.47;;;;;;;12.27;59.17;101119.06;4247967;27;20089;-54
2023/12/29 05:18:05;;;;;;;9.20;2.67;;;;;;;12.31;59.10;101120.72;4247809;27;20043;-52
2023/12/29 05:20:08;;;;;;;10.20;2.60;;;;;;;12.27;60.07;101124.34;4248310;27;20133;-51
2023/12/29 05:22:11;;;;;;;8.93;2.65;;;;;;;12.23;59.20;101114.84;4248376;27;20508;-54
2023/12/29 05:24:13;;;;;;;6.85;2.30;;;;;;;12.27;58.96;101122.59;4248280;27;20382;-52
2023/12/29 05:26:15;;;;;;;9.15;2.50;;;;;;;12.34;58.98;101122.38;4248210;27;20043;-52
2023/12/29 05:28:16;;;;;;;9.05;2.40;;;;;;;12.28;59.81;101126.06;4248213;27;20086;-52
2023/12/29 05:30:18;;;;;;;7.35;2.58;;;;;;;12.27;59.36;101130.50;4247628;27;20075;-52
2023/12/29 05:32:20;;;;;;;7.97;1.98;;;;;;;12.29;59.14;101130.44;4247561;27;20055;-51
2023/12/29 05:34:21;;;;;;;7.85;1.90;;;;;;;12.32;58.53;101135.63;4248026;27;20047;-55
2023/12/29 05:36:23;;;;;;;7.32;1.90;;;;;;;12.31;59.15;101136.53;4247920;27;20039;-55
2023/12/29 05:38:25;;;;;;;8.38;2.33;;;;;;;12.31;59.30;101136.53;4247991;27;20043;-54
2023/12/29 05:40:28;;;;;;;11.52;1.90;;;;;;;12.32;59.26;101143.53;4247830;27;20265;-54
2023/12/29 05:42:30;;;;;;;8.70;1.92;;;;;;;12.33;58.94;101132.03;4247838;27;20497;-54
2023/12/29 05:44:31;;;;;;;8.77;2.03;;;;;;;12.35;59.20;101132.00;4247812;27;20046;-53
2023/12/29 05:46:33;;;;;;;6.65;1.85;;;;;;;12.34;58.95;101135.56;4247683;27;20475;-55
2023/12/29 05:48:35;;;;;;;6.55;1.80;;;;;;;12.34;59.44;101136.41;4248051;27;20047;-53
2023/12/29 05:50:37;;;;;;;7.72;1.73;;;;;;;12.34;59.20;101132.91;4247624;27;20043;-53
2023/12/29 05:52:38;;;;;;;9.40;1.98;;;;;;;12.37;59.01;101130.16;4247159;27;20065;-53
2023/12/29 05:54:40;;;;;;;8.38;1.67;;;;;;;12.37;58.76;101136.31;4247858;27;20109;-53
2023/12/29 05:56:42;;;;;;;7.80;1.80;;;;;;;12.38;58.65;101134.53;4248000;27;20134;-55
2023/12/29 05:58:44;;;;;;;8.73;2.03;;;;;;;12.38;59.23;101129.25;4247712;27;20517;-53
2023/12/29 06:00:46;;;;;;;7.13;1.83;;;;;;;12.38;59.08;101131.88;4247204;27;20096;-54
2023/12/29 06:02:48;;;;;;;8.52;1.60;;;;;;;12.31;59.20;101131.25;4247769;27;20046;-53
2023/12/29 06:04:50;;;;;;;7.38;1.90;;;;;;;12.34;59.11;101131.13;4247433;27;20067;-51
2023/12/29 06:06:51;;;;;;;7.35;1.95;;;;;;;12.34;59.12;101131.13;4247548;27;20039;-52
2023/12/29 06:08:54;;;;;;;9.02;1.85;;;;;;;12.34;59.29;101128.50;4247527;27;20047;-53
2023/12/29 06:10:55;;;;;;;6.20;1.73;;;;;;;12.36;58.97;101131.06;4247381;27;20509;-54
2023/12/29 06:12:57;;;;;;;9.60;1.67;;;;;;;12.38;58.65;101127.47;4229304;28;20484;-54
2023/12/29 06:14:59;;;;;;;7.07;1.70;;;;;;;12.34;59.55;101132.91;4246988;27;20043;-51
2023/12/29 06:17:01;;;;;;;8.38;1.75;;;;;;;12.29;58.90;101133.06;4247505;27;20070;-52
2023/12/29 06:19:03;;;;;;;8.85;1.88;;;;;;;12.34;59.00;101136.41;4247698;27;20063;-54
2023/12/29 06:21:05;;;;;;;8.63;1.90;;;;;;;12.37;58.84;101151.25;4247287;27;20039;-54
2023/12/29 06:23:06;;;;;;;8.77;1.92;;;;;;;12.24;59.17;101148.22;4247364;27;20151;-51
2023/12/29 06:25:10;;;;;;;7.50;1.60;;;;;;;12.29;59.34;101151.53;4229170;28;20537;-53
2023/12/29 06:27:12;;;;;;;7.75;1.50;;;;;;;12.33;59.02;101149.66;4247466;27;20050;-54
2023/12/29 06:29:19;;;;;;;7.20;1.77;;;;;;;12.33;59.17;101147.88;4246723;27;20127;-52
2023/12/29 06:31:25;;;;;;;8.50;1.50;;;;;;;12.33;59.20;101152.28;4247181;27;20044;-53
2023/12/29 06:33:27;;;;;;;6.88;1.60;;;;;;;12.33;59.27;101145.22;4247189;27;20067;-53
2023/12/29 06:35:29;;;;;;;8.43;2.03;;;;;;;12.35;59.03;101145.19;4247225;27;20043;-52
2023/12/29 06:37:31;;;;;;;6.60;1.50;;;;;;;12.32;59.02;101140.91;4247037;27;20478;-53
2023/12/29 06:39:32;;;;;;;7.05;1.75;;;;;;;12.33;58.90;101139.94;4247165;27;20043;-51
2023/12/29 06:41:34;;;;;;;8.40;1.90;;;;;;;12.35;58.79;101143.41;4247046;27;20055;-52
2023/12/29 06:43:36;;;;;;;9.15;1.95;;;;;;;12.37;58.93;101138.06;4246518;27;20039;-54
2023/12/29 06:45:37;;;;;;;5.80;1.35;;;;;;;12.30;59.04;101142.72;4246805;27;20067;-54
2023/12/29 06:47:39;;;;;;;6.80;1.45;;;;;;;12.30;58.96;101135.66;4247331;28;20517;-54
2023/12/29 06:49:41;;;;;;;;;;;;;;;12.30;59.19;101138.28;4247329;28;20047;-55
2023/12/29 06:51:43;;;;;;;7.23;1.40;;;;;;;12.33;58.98;101133.84;4247333;28;19926;-53
2023/12/29 06:53:47;;;;;;;8.00;1.60;;;;;;;12.35;58.82;101126.72;4247111;28;20051;-52
2023/12/29 06:55:49;;;;;;;5.80;1.30;;;;;;;12.34;59.11;101135.56;4247037;28;20417;-52
2023/12/29 06:57:50;;;;;;;6.10;1.63;;;;;;;12.34;59.03;101135.56;4246986;28;20417;-53
2023/12/29 06:59:52;;;;;;;7.40;1.60;;;;;;;12.33;59.41;101131.19;4246604;28;20467;-53
2023/12/29 07:01:53;;;;;;;8.02;1.48;;;;;;;12.32;58.73;101129.47;4247078;28;20058;-53
2023/12/29 07:03:55;;;;;;;6.70;1.65;;;;;;;12.34;58.64;101128.50;4246848;27;20043;-54
2023/12/29 07:06:00;;;;;;;6.10;1.20;;;;;;;12.28;59.57;101129.59;4250408;27;20055;-52
2023/12/29 07:08:02;;;;;;;5.95;1.83;;;;;;;12.13;59.57;101122.22;4250324;27;20054;-54
2023/12/29 07:10:06;;;;;;;6.88;1.77;;;;;;;12.22;59.42;101118.38;4250483;27;20043;-55
2023/12/29 07:12:08;;;;;;;9.80;2.08;;;;;;;12.23;59.36;101123.59;4250486;27;20043;-53
2023/12/29 07:14:09;;;;;;;6.47;1.40;;;;;;;12.22;58.69;101116.59;4249357;27;20043;-55
2023/12/29 07:16:11;;;;;;;6.47;1.42;;;;;;;12.27;58.77;101119.97;4250068;27;20046;-55
2023/12/29 07:18:13;;;;;;;6.68;1.95;;;;;;;12.30;58.77;101122.47;4250343;27;20104;-53
2023/12/29 07:20:16;;;;;;;9.10;2.03;;;;;;;12.07;60.10;101117.19;4250294;27;20054;-54
2023/12/29 07:22:17;;;;;;;8.02;1.50;;;;;;;11.96;60.49;101120.16;4250423;27;20047;-52
2023/12/29 07:24:19;;;;;;;6.78;1.58;;;;;;;12.12;59.63;101108.16;4250365;27;20134;-54
2023/12/29 07:26:21;;;;;;;9.00;1.60;;;;;;;12.21;59.58;101116.66;4250236;27;20046;-55
2023/12/29 07:28:22;;;;;;;7.18;1.60;;;;;;;12.23;59.40;101122.75;4249913;27;20082;-53
2023/12/29 07:30:25;;;;;;;6.07;1.67;;;;;;;12.25;59.30;101116.50;4248960;27;20055;-51
2023/12/29 07:32:28;;;;;;;7.88;1.50;;;;;;;12.26;59.11;101115.59;4250044;27;20076;-52
2023/12/29 07:34:31;;;;;;;6.55;1.40;;;;;;;12.16;59.41;101111.56;4250150;27;20462;-53
2023/12/29 07:36:33;;;;;;;7.32;1.65;;;;;;;12.23;59.61;101120.13;4250208;27;20466;-52
2023/12/29 07:38:34;;;;;;;6.53;1.63;;;;;;;12.23;59.33;101122.75;4233021;28;20621;-51
2023/12/29 07:40:37;;;;;;;7.35;1.85;;;;;;;12.25;59.62;101108.59;4232740;28;20100;-53
2023/12/29 07:42:44;;;;;;;;;;;;;;;12.22;59.85;101108.69;4233181;28;20048;-55
2023/12/29 07:44:46;;;;;;;6.82;1.80;;;;;;;12.14;59.92;101118.69;4244287;27;20374;-53
2023/12/29 07:46:48;;;;;;;4.97;1.65;;;;;;;12.20;59.31;101109.66;4249925;27;20057;-55
2023/12/29 07:48:50;;;;;;;7.20;1.75;;;;;;;12.24;59.14;101113.94;4250022;27;20040;-56
2023/12/29 07:50:52;;;;;;;5.45;1.45;;;;;;;12.23;59.17;101107.78;4249795;27;20120;-52
2023/12/29 07:52:54;;;;;;;6.22;1.80;;;;;;;12.24;59.20;101114.78;4249538;27;20071;-54
2023/12/29 07:54:55;;;;;;;6.70;1.67;;;;;;;12.23;59.43;101112.22;4249712;27;20051;-55
2023/12/29 07:56:57;;;;;;;8.30;2.10;;;;;;;12.22;59.13;101111.31;4249654;27;20517;-52
2023/12/29 07:58:59;;;;;;;6.78;2.08;;;;;;;12.18;59.62;101103.63;4249543;27;20722;-54
2023/12/29 08:01:00;;;;;;;6.65;1.80;;;;;;;12.15;59.63;101107.19;4249619;27;20156;-53
2023/12/29 08:03:03;;;;;;;6.85;2.10;;;;;;;12.21;59.37;101109.63;4249386;27;20105;-54
2023/12/29 08:05:05;;;;;;;8.00;2.20;;;;;;;12.22;59.42;101111.31;4249726;27;20163;-52
2023/12/29 08:07:06;;;;;;;6.97;2.35;;;;;;;12.21;59.72;101100.84;4249217;27;20053;-55
2023/12/29 08:09:08;;;;;;;6.72;1.90;;;;;;;12.15;59.76;101101.91;4249192;27;20039;-52
2023/12/29 08:11:16;;;;;;;6.63;1.80;;;;;;;12.21;59.50;101096.44;4249087;27;20039;-53
2023/12/29 08:13:18;;;;;;;6.70;1.70;;;;;;;12.22;59.45;101099.94;4231822;27;20047;-53
2023/12/29 08:15:20;;;;;;;7.25;2.10;;;;;;;12.22;59.38;101095.50;4249001;27;20047;-52
2023/12/29 08:17:21;;;;;;;6.50;1.95;;;;;;;12.26;59.04;101104.16;4248474;27;20070;-53
2023/12/29 08:19:23;;;;;;;6.80;1.83;;;;;;;12.22;59.39;101089.38;4249272;27;20391;-53
2023/12/29 08:21:25;;;;;;;6.30;1.90;;;;;;;12.25;59.40;101099.84;4249235;27;20082;-53
2023/12/29 08:23:26;;;;;;;5.88;1.88;;;;;;;12.18;59.60;101100.97;4249274;27;20051;-55
2023/12/29 08:25:29;;;;;;;4.30;1.30;;;;;;;12.17;59.61;101109.78;4248904;27;20104;-53
2023/12/29 08:27:31;;;;;;;7.15;1.67;;;;;;;12.17;59.41;101104.53;4249158;27;20048;-54
2023/12/29 08:29:32;;;;;;;7.15;1.75;;;;;;;12.21;59.68;101108.75;4249208;27;20459;-53
2023/12/29 08:31:34;;;;;;;7.28;1.80;;;;;;;12.24;59.49;101111.28;4249083;27;20455;-52
2023/12/29 08:33:36;;;;;;;8.43;2.10;;;;;;;12.16;59.79;101105.44;4249122;27;20604;-54
2023/12/29 08:35:37;;;;;;;6.95;1.75;;;;;;;12.07;60.25;101112.75;4249212;27;20043;-54
2023/12/29 08:37:39;;;;;;;7.53;1.80;;;;;;;12.06;59.80;101107.53;4248755;27;20076;-53
2023/12/29 08:39:41;;;;;;;9.20;2.58;;;;;;;12.00;60.36;101115.66;4248816;27;20374;-54
2023/12/29 08:41:42;;;;;;;8.25;2.50;;;;;;;12.08;60.00;101111.84;4248857;27;20047;-53
2023/12/29 08:43:44;;;;;;;8.02;1.70;;;;;;;12.16;59.65;101115.97;4248654;27;20047;-52
2023/12/29 08:45:46;;;;;;;7.55;1.85;;;;;;;12.16;59.49;101119.47;4248731;27;20130;-53
2023/12/29 08:47:47;;;;;;;6.72;1.70;;;;;;;12.13;59.63;101125.72;4230762;28;20126;-53
2023/12/29 08:49:49;;;;;;;6.10;1.60;;;;;;;12.16;60.00;101121.25;4248814;27;20088;-53
2023/12/29 08:51:51;;;;;;;7.38;1.73;;;;;;;12.05;60.40;101129.53;4248794;27;20129;-55
2023/12/29 08:53:53;;;;;;;6.75;1.85;;;;;;;12.08;59.80;101127.66;4248862;27;20043;-53
2023/12/29 08:55:54;;;;;;;6.40;1.98;;;;;;;12.18;59.88;101132.63;4248264;27;20039;-53
2023/12/29 08:57:56;;;;;;;9.50;2.00;;;;;;;12.08;60.38;101127.66;4248859;27;20078;-55
2023/12/29 08:59:58;;;;;;;7.75;1.85;;;;;;;12.12;60.08;101131.91;4248334;27;20043;-55
2023/12/29 09:02:00;;;;;;;7.07;1.83;;;;;;;12.17;59.76;101128.25;4248502;27;20421;-53
2023/12/29 09:04:03;;;;;;;7.10;1.58;;;;;;;12.25;59.43;101123.56;4248659;27;20386;-53
2023/12/29 09:06:05;;;;;;;5.68;1.73;;;;;;;12.28;59.22;101129.59;4248243;27;20081;-53
2023/12/29 09:08:06;;;;;;;8.68;1.77;;;;;;;12.26;60.73;101141.97;4246716;27;20410;-56
2023/12/29 09:10:10;;;;;;;7.20;1.48;;;;;;;12.26;60.37;101138.44;4240402;27;20043;-55
2023/12/29 09:12:12;;;;;;;6.80;1.45;;;;;;;12.22;60.53;101148.25;4242192;27;20039;-56
2023/12/29 09:14:14;;;;;;;7.22;1.63;;;;;;;12.21;60.67;101148.31;4247669;27;20118;-56
2023/12/29 09:16:15;;;;;;;7.47;1.50;;;;;;;12.24;62.36;101153.50;4228142;28;20036;-57
2023/12/29 09:18:17;;;;;;;7.93;1.88;;;;;;;12.25;60.96;101157.84;4220503;28;20067;-54
2023/12/29 09:20:19;;;;;;;9.30;1.88;;;;;;;12.26;61.66;101157.78;4231045;28;20044;-57
2023/12/29 09:22:20;;;;;;;8.63;2.25;;;;;;;12.28;61.73;101153.34;4237594;27;20054;-60
2023/12/29 09:24:22;;;;;;;7.97;2.30;;;;;;;12.22;62.09;101150.88;4236808;27;20048;-56
2023/12/29 09:26:24;;;;;;;8.13;2.08;;;;;;;12.10;62.30;101154.84;4231990;27;20048;-61
2023/12/29 09:28:25;;;;;;;9.05;1.83;;;;;;;12.16;61.87;101155.53;4243185;27;20055;-52
2023/12/29 09:30:27;;;;;;;8.32;2.13;;;;;;;12.13;61.72;101157.34;4247822;27;20189;-52